sensor_id;sensor_type;location;lat;lon;timestamp;P1;durP1;ratioP1;P2;durP2;ratioP2
71127;SDS011;59249;59.736;30.568;2024-03-06T00:02:34;13.82;;;3.78;;
71127;SDS011;59249;59.736;30.568;2024-03-06T00:05:05;12.73;;;4.05;;
71127;SDS011;59249;59.736;30.568;2024-03-06T00:07:37;17.23;;;4.50;;
71127;SDS011;59249;59.736;30.568;2024-03-06T00:10:22;12.27;;;4.53;;
71127;SDS011;59249;59.736;30.568;2024-03-06T00:13:03;10.52;;;3.10;;
71127;SDS011;59249;59.736;30.568;2024-03-06T00:15:57;13.57;;;3.72;;
71127;SDS011;59249;59.736;30.568;2024-03-06T00:18:30;12.80;;;5.00;;
71127;SDS011;59249;59.736;30.568;2024-03-06T00:21:02;17.10;;;4.75;;
71127;SDS011;59249;59.736;30.568;2024-03-06T00:23:32;22.90;;;6.00;;
71127;SDS011;59249;59.736;30.568;2024-03-06T00:26:02;16.23;;;4.88;;
71127;SDS011;59249;59.736;30.568;2024-03-06T00:28:32;17.33;;;5.65;;
71127;SDS011;59249;59.736;30.568;2024-03-06T00:31:02;17.35;;;6.20;;
71127;SDS011;59249;59.736;30.568;2024-03-06T00:33:39;13.98;;;4.45;;
71127;SDS011;59249;59.736;30.568;2024-03-06T00:36:09;14.87;;;4.53;;
71127;SDS011;59249;59.736;30.568;2024-03-06T00:38:41;14.13;;;4.60;;
71127;SDS011;59249;59.736;30.568;2024-03-06T00:41:11;13.95;;;4.70;;
71127;SDS011;59249;59.736;30.568;2024-03-06T00:43:40;17.90;;;5.22;;
71127;SDS011;59249;59.736;30.568;2024-03-06T00:46:10;14.80;;;4.72;;
71127;SDS011;59249;59.736;30.568;2024-03-06T00:48:40;22.60;;;5.90;;
71127;SDS011;59249;59.736;30.568;2024-03-06T00:51:09;17.38;;;5.05;;
71127;SDS011;59249;59.736;30.568;2024-03-06T00:53:38;13.45;;;4.30;;
71127;SDS011;59249;59.736;30.568;2024-03-06T00:56:08;17.15;;;5.60;;
71127;SDS011;59249;59.736;30.568;2024-03-06T00:58:38;15.02;;;5.40;;
71127;SDS011;59249;59.736;30.568;2024-03-06T01:01:09;20.53;;;5.83;;
71127;SDS011;59249;59.736;30.568;2024-03-06T01:03:56;15.07;;;5.95;;
71127;SDS011;59249;59.736;30.568;2024-03-06T01:06:35;13.52;;;5.07;;
71127;SDS011;59249;59.736;30.568;2024-03-06T01:09:14;15.38;;;6.10;;
71127;SDS011;59249;59.736;30.568;2024-03-06T01:11:58;16.38;;;5.75;;
71127;SDS011;59249;59.736;30.568;2024-03-06T01:14:43;17.43;;;5.80;;
71127;SDS011;59249;59.736;30.568;2024-03-06T01:17:23;13.43;;;5.68;;
71127;SDS011;59249;59.736;30.568;2024-03-06T01:19:59;23.00;;;6.97;;
71127;SDS011;59249;59.736;30.568;2024-03-06T01:22:36;12.05;;;5.15;;
71127;SDS011;59249;59.736;30.568;2024-03-06T01:25:08;23.85;;;5.55;;
71127;SDS011;59249;59.736;30.568;2024-03-06T01:27:45;19.63;;;6.00;;
71127;SDS011;59249;59.736;30.568;2024-03-06T01:30:25;18.60;;;6.35;;
71127;SDS011;59249;59.736;30.568;2024-03-06T01:32:55;22.05;;;6.28;;
71127;SDS011;59249;59.736;30.568;2024-03-06T01:35:26;18.08;;;5.97;;
71127;SDS011;59249;59.736;30.568;2024-03-06T01:38:15;19.58;;;5.60;;
71127;SDS011;59249;59.736;30.568;2024-03-06T01:40:54;16.47;;;4.87;;
71127;SDS011;59249;59.736;30.568;2024-03-06T01:43:25;16.55;;;4.53;;
71127;SDS011;59249;59.736;30.568;2024-03-06T01:45:55;14.98;;;4.63;;
71127;SDS011;59249;59.736;30.568;2024-03-06T01:48:27;16.85;;;4.20;;
71127;SDS011;59249;59.736;30.568;2024-03-06T01:51:19;21.60;;;5.00;;
71127;SDS011;59249;59.736;30.568;2024-03-06T01:53:52;14.33;;;4.93;;
71127;SDS011;59249;59.736;30.568;2024-03-06T01:56:22;16.42;;;5.45;;
71127;SDS011;59249;59.736;30.568;2024-03-06T01:58:57;12.98;;;4.55;;
71127;SDS011;59249;59.736;30.568;2024-03-06T02:01:28;15.18;;;5.47;;
71127;SDS011;59249;59.736;30.568;2024-03-06T02:03:57;12.43;;;4.90;;
71127;SDS011;59249;59.736;30.568;2024-03-06T02:06:39;16.83;;;5.00;;
71127;SDS011;59249;59.736;30.568;2024-03-06T02:09:17;15.23;;;4.38;;
71127;SDS011;59249;59.736;30.568;2024-03-06T02:11:50;11.40;;;3.53;;
71127;SDS011;59249;59.736;30.568;2024-03-06T02:14:28;16.88;;;4.85;;
71127;SDS011;59249;59.736;30.568;2024-03-06T02:16:57;12.75;;;4.25;;
71127;SDS011;59249;59.736;30.568;2024-03-06T02:19:37;14.90;;;4.47;;
71127;SDS011;59249;59.736;30.568;2024-03-06T02:22:09;16.35;;;4.60;;
71127;SDS011;59249;59.736;30.568;2024-03-06T02:24:43;14.20;;;5.65;;
71127;SDS011;59249;59.736;30.568;2024-03-06T02:27:40;15.98;;;4.38;;
71127;SDS011;59249;59.736;30.568;2024-03-06T02:30:12;13.30;;;3.88;;
71127;SDS011;59249;59.736;30.568;2024-03-06T02:32:42;12.23;;;4.13;;
71127;SDS011;59249;59.736;30.568;2024-03-06T02:35:13;12.57;;;3.78;;
71127;SDS011;59249;59.736;30.568;2024-03-06T02:37:48;13.48;;;3.75;;
71127;SDS011;59249;59.736;30.568;2024-03-06T02:40:18;12.48;;;4.70;;
71127;SDS011;59249;59.736;30.568;2024-03-06T02:42:48;17.05;;;4.60;;
71127;SDS011;59249;59.736;30.568;2024-03-06T02:45:23;14.00;;;4.20;;
71127;SDS011;59249;59.736;30.568;2024-03-06T02:48:16;10.43;;;4.40;;
71127;SDS011;59249;59.736;30.568;2024-03-06T02:50:57;13.13;;;3.78;;
71127;SDS011;59249;59.736;30.568;2024-03-06T02:53:35;12.98;;;3.40;;
71127;SDS011;59249;59.736;30.568;2024-03-06T02:56:15;12.93;;;3.80;;
71127;SDS011;59249;59.736;30.568;2024-03-06T02:58:45;11.63;;;3.90;;
71127;SDS011;59249;59.736;30.568;2024-03-06T03:01:20;11.60;;;4.60;;
71127;SDS011;59249;59.736;30.568;2024-03-06T03:03:52;11.20;;;3.65;;
71127;SDS011;59249;59.736;30.568;2024-03-06T03:06:23;12.20;;;4.20;;
71127;SDS011;59249;59.736;30.568;2024-03-06T03:08:58;13.77;;;5.22;;
71127;SDS011;59249;59.736;30.568;2024-03-06T03:11:32;12.27;;;4.07;;
71127;SDS011;59249;59.736;30.568;2024-03-06T03:14:03;10.18;;;3.55;;
71127;SDS011;59249;59.736;30.568;2024-03-06T03:16:36;10.27;;;3.15;;
71127;SDS011;59249;59.736;30.568;2024-03-06T03:19:10;12.27;;;4.30;;
71127;SDS011;59249;59.736;30.568;2024-03-06T03:21:46;11.63;;;3.35;;
71127;SDS011;59249;59.736;30.568;2024-03-06T03:24:17;12.53;;;3.53;;
71127;SDS011;59249;59.736;30.568;2024-03-06T03:26:52;14.77;;;4.35;;
71127;SDS011;59249;59.736;30.568;2024-03-06T03:29:28;10.32;;;4.25;;
71127;SDS011;59249;59.736;30.568;2024-03-06T03:31:57;14.43;;;4.30;;
71127;SDS011;59249;59.736;30.568;2024-03-06T03:34:27;8.43;;;3.92;;
71127;SDS011;59249;59.736;30.568;2024-03-06T03:36:57;14.27;;;4.73;;
71127;SDS011;59249;59.736;30.568;2024-03-06T03:39:27;19.85;;;6.57;;
71127;SDS011;59249;59.736;30.568;2024-03-06T03:42:13;17.83;;;6.53;;
71127;SDS011;59249;59.736;30.568;2024-03-06T03:44:45;21.90;;;7.32;;
71127;SDS011;59249;59.736;30.568;2024-03-06T03:47:26;14.52;;;5.78;;
71127;SDS011;59249;59.736;30.568;2024-03-06T03:49:56;19.63;;;6.87;;
71127;SDS011;59249;59.736;30.568;2024-03-06T03:52:36;14.63;;;4.90;;
71127;SDS011;59249;59.736;30.568;2024-03-06T03:55:11;19.75;;;6.70;;
71127;SDS011;59249;59.736;30.568;2024-03-06T03:57:46;17.88;;;6.28;;
71127;SDS011;59249;59.736;30.568;2024-03-06T04:00:25;23.23;;;7.20;;
71127;SDS011;59249;59.736;30.568;2024-03-06T04:02:56;18.23;;;6.73;;
71127;SDS011;59249;59.736;30.568;2024-03-06T04:05:27;18.27;;;7.75;;
71127;SDS011;59249;59.736;30.568;2024-03-06T04:08:11;23.23;;;7.15;;
71127;SDS011;59249;59.736;30.568;2024-03-06T04:10:47;30.90;;;7.60;;
71127;SDS011;59249;59.736;30.568;2024-03-06T04:13:17;20.92;;;7.68;;
71127;SDS011;59249;59.736;30.568;2024-03-06T04:15:48;12.70;;;4.97;;
71127;SDS011;59249;59.736;30.568;2024-03-06T04:18:22;16.67;;;6.18;;
71127;SDS011;59249;59.736;30.568;2024-03-06T04:21:02;17.95;;;5.10;;
71127;SDS011;59249;59.736;30.568;2024-03-06T04:23:33;15.60;;;5.03;;
71127;SDS011;59249;59.736;30.568;2024-03-06T04:26:05;14.75;;;4.25;;
71127;SDS011;59249;59.736;30.568;2024-03-06T04:28:35;12.57;;;3.80;;
71127;SDS011;59249;59.736;30.568;2024-03-06T04:31:06;15.13;;;4.68;;
71127;SDS011;59249;59.736;30.568;2024-03-06T04:33:40;8.43;;;2.85;;
71127;SDS011;59249;59.736;30.568;2024-03-06T04:36:10;13.40;;;4.60;;
71127;SDS011;59249;59.736;30.568;2024-03-06T04:38:39;11.48;;;4.15;;
71127;SDS011;59249;59.736;30.568;2024-03-06T04:41:10;6.43;;;2.43;;
71127;SDS011;59249;59.736;30.568;2024-03-06T04:43:40;9.27;;;3.30;;
71127;SDS011;59249;59.736;30.568;2024-03-06T04:46:12;8.35;;;3.38;;
71127;SDS011;59249;59.736;30.568;2024-03-06T04:48:42;8.52;;;2.88;;
71127;SDS011;59249;59.736;30.568;2024-03-06T04:51:14;9.45;;;3.53;;
71127;SDS011;59249;59.736;30.568;2024-03-06T04:53:47;10.70;;;4.00;;
71127;SDS011;59249;59.736;30.568;2024-03-06T04:56:21;13.02;;;3.50;;
71127;SDS011;59249;59.736;30.568;2024-03-06T04:58:57;7.70;;;2.90;;
71127;SDS011;59249;59.736;30.568;2024-03-06T05:01:30;8.82;;;3.08;;
71127;SDS011;59249;59.736;30.568;2024-03-06T05:03:59;12.23;;;3.72;;
71127;SDS011;59249;59.736;30.568;2024-03-06T05:06:47;8.73;;;2.97;;
71127;SDS011;59249;59.736;30.568;2024-03-06T05:09:39;9.43;;;3.53;;
71127;SDS011;59249;59.736;30.568;2024-03-06T05:12:28;13.00;;;4.00;;
71127;SDS011;59249;59.736;30.568;2024-03-06T05:15:16;7.40;;;2.63;;
71127;SDS011;59249;59.736;30.568;2024-03-06T05:18:04;10.23;;;3.22;;
71127;SDS011;59249;59.736;30.568;2024-03-06T05:21:07;10.20;;;3.83;;
71127;SDS011;59249;59.736;30.568;2024-03-06T05:23:54;14.82;;;3.08;;
71127;SDS011;59249;59.736;30.568;2024-03-06T05:26:43;10.35;;;3.13;;
71127;SDS011;59249;59.736;30.568;2024-03-06T05:29:33;10.73;;;4.30;;
71127;SDS011;59249;59.736;30.568;2024-03-06T05:32:22;12.48;;;5.22;;
71127;SDS011;59249;59.736;30.568;2024-03-06T05:35:13;14.53;;;4.50;;
71127;SDS011;59249;59.736;30.568;2024-03-06T05:38:02;13.63;;;4.93;;
71127;SDS011;59249;59.736;30.568;2024-03-06T05:40:52;9.70;;;3.95;;
71127;SDS011;59249;59.736;30.568;2024-03-06T05:44:07;12.85;;;4.35;;
71127;SDS011;59249;59.736;30.568;2024-03-06T05:47:23;14.93;;;4.93;;
71127;SDS011;59249;59.736;30.568;2024-03-06T05:50:10;14.53;;;5.50;;
71127;SDS011;59249;59.736;30.568;2024-03-06T05:53:01;15.23;;;5.47;;
71127;SDS011;59249;59.736;30.568;2024-03-06T05:55:47;14.35;;;5.28;;
71127;SDS011;59249;59.736;30.568;2024-03-06T05:58:52;10.70;;;3.88;;
71127;SDS011;59249;59.736;30.568;2024-03-06T06:01:43;14.57;;;4.93;;
71127;SDS011;59249;59.736;30.568;2024-03-06T06:04:17;12.47;;;4.40;;
71127;SDS011;59249;59.736;30.568;2024-03-06T06:06:52;14.23;;;5.57;;
71127;SDS011;59249;59.736;30.568;2024-03-06T06:09:42;15.68;;;5.40;;
71127;SDS011;59249;59.736;30.568;2024-03-06T06:12:24;17.85;;;4.78;;
71127;SDS011;59249;59.736;30.568;2024-03-06T06:14:53;12.70;;;4.45;;
71127;SDS011;59249;59.736;30.568;2024-03-06T06:17:24;8.20;;;3.37;;
71127;SDS011;59249;59.736;30.568;2024-03-06T06:20:15;10.55;;;4.50;;
71127;SDS011;59249;59.736;30.568;2024-03-06T06:22:54;13.68;;;4.35;;
71127;SDS011;59249;59.736;30.568;2024-03-06T06:25:30;11.80;;;3.78;;
71127;SDS011;59249;59.736;30.568;2024-03-06T06:28:25;4.55;;;1.25;;
71127;SDS011;59249;59.736;30.568;2024-03-06T06:30:56;7.13;;;2.83;;
71127;SDS011;59249;59.736;30.568;2024-03-06T06:33:26;7.05;;;2.53;;
71127;SDS011;59249;59.736;30.568;2024-03-06T06:35:59;12.65;;;2.75;;
71127;SDS011;59249;59.736;30.568;2024-03-06T06:38:36;11.65;;;2.75;;
71127;SDS011;59249;59.736;30.568;2024-03-06T06:41:08;5.53;;;1.60;;
71127;SDS011;59249;59.736;30.568;2024-03-06T06:43:38;8.43;;;2.67;;
71127;SDS011;59249;59.736;30.568;2024-03-06T06:46:08;11.30;;;3.30;;
71127;SDS011;59249;59.736;30.568;2024-03-06T06:48:45;9.05;;;2.33;;
71127;SDS011;59249;59.736;30.568;2024-03-06T06:51:18;9.70;;;3.15;;
71127;SDS011;59249;59.736;30.568;2024-03-06T06:53:48;7.85;;;2.78;;
71127;SDS011;59249;59.736;30.568;2024-03-06T06:56:17;13.23;;;3.77;;
71127;SDS011;59249;59.736;30.568;2024-03-06T06:58:51;9.60;;;3.17;;
71127;SDS011;59249;59.736;30.568;2024-03-06T07:01:22;9.05;;;3.10;;
71127;SDS011;59249;59.736;30.568;2024-03-06T07:03:57;15.02;;;3.63;;
71127;SDS011;59249;59.736;30.568;2024-03-06T07:06:42;10.43;;;3.25;;
71127;SDS011;59249;59.736;30.568;2024-03-06T07:09:20;13.47;;;3.23;;
71127;SDS011;59249;59.736;30.568;2024-03-06T07:11:52;10.13;;;2.55;;
71127;SDS011;59249;59.736;30.568;2024-03-06T07:14:23;12.57;;;3.72;;
71127;SDS011;59249;59.736;30.568;2024-03-06T07:16:53;13.23;;;3.58;;
71127;SDS011;59249;59.736;30.568;2024-03-06T07:19:24;9.52;;;2.83;;
71127;SDS011;59249;59.736;30.568;2024-03-06T07:22:02;14.47;;;4.67;;
71127;SDS011;59249;59.736;30.568;2024-03-06T07:24:31;10.48;;;3.00;;
71127;SDS011;59249;59.736;30.568;2024-03-06T07:27:06;12.13;;;3.53;;
71127;SDS011;59249;59.736;30.568;2024-03-06T07:29:35;9.10;;;1.85;;
71127;SDS011;59249;59.736;30.568;2024-03-06T07:32:06;9.23;;;2.25;;
71127;SDS011;59249;59.736;30.568;2024-03-06T07:34:35;6.00;;;2.00;;
71127;SDS011;59249;59.736;30.568;2024-03-06T07:37:06;11.50;;;2.38;;
71127;SDS011;59249;59.736;30.568;2024-03-06T07:39:36;9.88;;;2.38;;
71127;SDS011;59249;59.736;30.568;2024-03-06T07:42:07;7.03;;;1.73;;
71127;SDS011;59249;59.736;30.568;2024-03-06T07:44:37;7.45;;;1.80;;
71127;SDS011;59249;59.736;30.568;2024-03-06T07:47:21;12.03;;;2.20;;
71127;SDS011;59249;59.736;30.568;2024-03-06T07:50:04;8.27;;;2.00;;
71127;SDS011;59249;59.736;30.568;2024-03-06T07:52:49;8.40;;;1.90;;
71127;SDS011;59249;59.736;30.568;2024-03-06T07:55:23;7.90;;;1.42;;
71127;SDS011;59249;59.736;30.568;2024-03-06T07:57:54;7.65;;;1.52;;
71127;SDS011;59249;59.736;30.568;2024-03-06T08:00:33;8.67;;;1.73;;
71127;SDS011;59249;59.736;30.568;2024-03-06T08:03:02;5.50;;;1.70;;
71127;SDS011;59249;59.736;30.568;2024-03-06T08:05:37;8.13;;;1.63;;
71127;SDS011;59249;59.736;30.568;2024-03-06T08:08:22;6.38;;;1.08;;
71127;SDS011;59249;59.736;30.568;2024-03-06T08:11:02;7.45;;;1.35;;
71127;SDS011;59249;59.736;30.568;2024-03-06T08:13:36;10.53;;;1.90;;
71127;SDS011;59249;59.736;30.568;2024-03-06T08:16:21;6.07;;;1.90;;
71127;SDS011;59249;59.736;30.568;2024-03-06T08:19:03;7.75;;;1.25;;
71127;SDS011;59249;59.736;30.568;2024-03-06T08:21:39;4.25;;;1.48;;
71127;SDS011;59249;59.736;30.568;2024-03-06T08:24:33;8.15;;;1.77;;
71127;SDS011;59249;59.736;30.568;2024-03-06T08:27:25;7.47;;;1.50;;
71127;SDS011;59249;59.736;30.568;2024-03-06T08:29:55;6.47;;;1.52;;
71127;SDS011;59249;59.736;30.568;2024-03-06T08:32:29;8.30;;;1.80;;
71127;SDS011;59249;59.736;30.568;2024-03-06T08:35:08;10.18;;;2.17;;
71127;SDS011;59249;59.736;30.568;2024-03-06T08:38:13;5.65;;;0.90;;
71127;SDS011;59249;59.736;30.568;2024-03-06T08:41:03;3.90;;;1.27;;
71127;SDS011;59249;59.736;30.568;2024-03-06T08:43:35;5.15;;;0.98;;
71127;SDS011;59249;59.736;30.568;2024-03-06T08:46:04;4.65;;;0.88;;
71127;SDS011;59249;59.736;30.568;2024-03-06T08:48:36;6.25;;;0.88;;
71127;SDS011;59249;59.736;30.568;2024-03-06T08:51:07;13.60;;;0.85;;
71127;SDS011;59249;59.736;30.568;2024-03-06T08:53:42;2.93;;;0.70;;
71127;SDS011;59249;59.736;30.568;2024-03-06T08:56:25;2.33;;;0.40;;
71127;SDS011;59249;59.736;30.568;2024-03-06T08:58:56;4.30;;;0.52;;
71127;SDS011;59249;59.736;30.568;2024-03-06T09:01:26;1.10;;;0.20;;
71127;SDS011;59249;59.736;30.568;2024-03-06T09:04:05;7.72;;;1.88;;
71127;SDS011;59249;59.736;30.568;2024-03-06T09:06:38;1.60;;;0.40;;
71127;SDS011;59249;59.736;30.568;2024-03-06T09:09:08;1.52;;;0.28;;
71127;SDS011;59249;59.736;30.568;2024-03-06T09:11:44;2.10;;;0.63;;
71127;SDS011;59249;59.736;30.568;2024-03-06T09:14:18;4.07;;;0.77;;
71127;SDS011;59249;59.736;30.568;2024-03-06T09:16:49;3.70;;;0.50;;
71127;SDS011;59249;59.736;30.568;2024-03-06T09:19:26;1.57;;;0.30;;
71127;SDS011;59249;59.736;30.568;2024-03-06T09:21:58;1.33;;;0.40;;
71127;SDS011;59249;59.736;30.568;2024-03-06T09:24:34;11.15;;;0.60;;
71127;SDS011;59249;59.736;30.568;2024-03-06T09:27:26;13.88;;;0.65;;
71127;SDS011;59249;59.736;30.568;2024-03-06T09:30:16;2.45;;;0.30;;
71127;SDS011;59249;59.736;30.568;2024-03-06T09:32:45;5.40;;;0.63;;
71127;SDS011;59249;59.736;30.568;2024-03-06T09:35:21;2.05;;;0.20;;
71127;SDS011;59249;59.736;30.568;2024-03-06T09:37:57;3.97;;;0.68;;
71127;SDS011;59249;59.736;30.568;2024-03-06T09:40:28;1.80;;;0.40;;
71127;SDS011;59249;59.736;30.568;2024-03-06T09:42:59;1.98;;;0.32;;
71127;SDS011;59249;59.736;30.568;2024-03-06T09:45:35;4.83;;;0.20;;
71127;SDS011;59249;59.736;30.568;2024-03-06T09:48:18;4.68;;;0.73;;
71127;SDS011;59249;59.736;30.568;2024-03-06T09:50:53;1.77;;;0.40;;
71127;SDS011;59249;59.736;30.568;2024-03-06T09:53:40;1.50;;;0.10;;
71127;SDS011;59249;59.736;30.568;2024-03-06T09:56:11;3.03;;;0.13;;
71127;SDS011;59249;59.736;30.568;2024-03-06T09:58:43;1.60;;;0.23;;
71127;SDS011;59249;59.736;30.568;2024-03-06T10:01:12;2.45;;;0.40;;
71127;SDS011;59249;59.736;30.568;2024-03-06T10:03:46;1.98;;;0.60;;
71127;SDS011;59249;59.736;30.568;2024-03-06T10:06:17;2.15;;;0.30;;
71127;SDS011;59249;59.736;30.568;2024-03-06T10:08:52;5.60;;;0.60;;
71127;SDS011;59249;59.736;30.568;2024-03-06T10:11:42;6.20;;;0.90;;
71127;SDS011;59249;59.736;30.568;2024-03-06T10:14:30;2.65;;;0.32;;
71127;SDS011;59249;59.736;30.568;2024-03-06T10:17:19;2.70;;;0.60;;
71127;SDS011;59249;59.736;30.568;2024-03-06T10:20:26;2.88;;;0.40;;
71127;SDS011;59249;59.736;30.568;2024-03-06T10:23:00;2.25;;;0.43;;
71127;SDS011;59249;59.736;30.568;2024-03-06T10:25:29;4.17;;;0.53;;
71127;SDS011;59249;59.736;30.568;2024-03-06T10:28:06;2.05;;;0.20;;
71127;SDS011;59249;59.736;30.568;2024-03-06T10:30:41;2.78;;;0.63;;
71127;SDS011;59249;59.736;30.568;2024-03-06T10:33:14;1.80;;;0.30;;
71127;SDS011;59249;59.736;30.568;2024-03-06T10:35:47;1.85;;;0.20;;
71127;SDS011;59249;59.736;30.568;2024-03-06T10:38:17;4.87;;;0.40;;
71127;SDS011;59249;59.736;30.568;2024-03-06T10:40:55;2.58;;;0.30;;
71127;SDS011;59249;59.736;30.568;2024-03-06T10:43:25;2.60;;;0.40;;
71127;SDS011;59249;59.736;30.568;2024-03-06T10:49:26;6.32;;;0.50;;
71127;SDS011;59249;59.736;30.568;2024-03-06T10:52:04;5.70;;;0.43;;
71127;SDS011;59249;59.736;30.568;2024-03-06T10:54:35;7.28;;;0.77;;
71127;SDS011;59249;59.736;30.568;2024-03-06T10:57:09;2.88;;;0.52;;
71127;SDS011;59249;59.736;30.568;2024-03-06T10:59:45;3.63;;;0.70;;
71127;SDS011;59249;59.736;30.568;2024-03-06T11:03:00;2.65;;;0.60;;
71127;SDS011;59249;59.736;30.568;2024-03-06T11:05:54;6.47;;;2.77;;
71127;SDS011;59249;59.736;30.568;2024-03-06T11:08:23;4.35;;;0.70;;
71127;SDS011;59249;59.736;30.568;2024-03-06T11:11:20;3.13;;;0.50;;
71127;SDS011;59249;59.736;30.568;2024-03-06T11:14:22;4.25;;;0.57;;
71127;SDS011;59249;59.736;30.568;2024-03-06T11:16:57;4.25;;;0.63;;
71127;SDS011;59249;59.736;30.568;2024-03-06T11:23:07;2.40;;;0.50;;
71127;SDS011;59249;59.736;30.568;2024-03-06T11:28:34;4.65;;;0.43;;
71127;SDS011;59249;59.736;30.568;2024-03-06T11:31:08;6.60;;;0.65;;
71127;SDS011;59249;59.736;30.568;2024-03-06T11:33:47;2.20;;;0.40;;
71127;SDS011;59249;59.736;30.568;2024-03-06T11:36:25;7.18;;;0.80;;
71127;SDS011;59249;59.736;30.568;2024-03-06T11:39:01;7.43;;;0.63;;
71127;SDS011;59249;59.736;30.568;2024-03-06T11:41:46;6.13;;;0.45;;
71127;SDS011;59249;59.736;30.568;2024-03-06T11:44:20;6.63;;;0.60;;
71127;SDS011;59249;59.736;30.568;2024-03-06T11:47:04;3.97;;;0.67;;
71127;SDS011;59249;59.736;30.568;2024-03-06T11:49:42;5.70;;;0.50;;
71127;SDS011;59249;59.736;30.568;2024-03-06T11:52:19;6.20;;;0.77;;
71127;SDS011;59249;59.736;30.568;2024-03-06T11:55:04;1.85;;;0.50;;
71127;SDS011;59249;59.736;30.568;2024-03-06T11:57:38;5.38;;;0.85;;
71127;SDS011;59249;59.736;30.568;2024-03-06T12:00:13;3.20;;;0.70;;
71127;SDS011;59249;59.736;30.568;2024-03-06T12:02:43;5.20;;;0.90;;
71127;SDS011;59249;59.736;30.568;2024-03-06T12:05:14;3.42;;;0.55;;
71127;SDS011;59249;59.736;30.568;2024-03-06T12:07:46;5.93;;;0.90;;
71127;SDS011;59249;59.736;30.568;2024-03-06T12:10:24;3.75;;;0.63;;
71127;SDS011;59249;59.736;30.568;2024-03-06T12:12:55;6.83;;;0.33;;
71127;SDS011;59249;59.736;30.568;2024-03-06T12:15:25;7.55;;;0.95;;
71127;SDS011;59249;59.736;30.568;2024-03-06T12:17:58;4.88;;;0.68;;
71127;SDS011;59249;59.736;30.568;2024-03-06T12:20:42;6.18;;;0.60;;
71127;SDS011;59249;59.736;30.568;2024-03-06T12:23:22;5.10;;;0.75;;
71127;SDS011;59249;59.736;30.568;2024-03-06T12:26:02;10.47;;;0.93;;
71127;SDS011;59249;59.736;30.568;2024-03-06T12:28:33;7.40;;;0.57;;
71127;SDS011;59249;59.736;30.568;2024-03-06T12:31:02;7.55;;;0.60;;
71127;SDS011;59249;59.736;30.568;2024-03-06T12:33:32;5.30;;;0.75;;
71127;SDS011;59249;59.736;30.568;2024-03-06T12:36:03;5.78;;;0.50;;
71127;SDS011;59249;59.736;30.568;2024-03-06T12:38:43;4.57;;;0.53;;
71127;SDS011;59249;59.736;30.568;2024-03-06T12:41:13;3.95;;;0.45;;
71127;SDS011;59249;59.736;30.568;2024-03-06T12:43:42;6.15;;;0.60;;
71127;SDS011;59249;59.736;30.568;2024-03-06T12:46:11;2.38;;;0.40;;
71127;SDS011;59249;59.736;30.568;2024-03-06T12:48:41;10.52;;;0.68;;
71127;SDS011;59249;59.736;30.568;2024-03-06T12:51:13;4.87;;;0.67;;
71127;SDS011;59249;59.736;30.568;2024-03-06T12:53:41;6.38;;;0.77;;
71127;SDS011;59249;59.736;30.568;2024-03-06T12:56:12;6.13;;;0.90;;
71127;SDS011;59249;59.736;30.568;2024-03-06T12:58:42;1.40;;;0.30;;
71127;SDS011;59249;59.736;30.568;2024-03-06T13:01:11;8.10;;;0.73;;
71127;SDS011;59249;59.736;30.568;2024-03-06T13:03:41;6.03;;;0.87;;
71127;SDS011;59249;59.736;30.568;2024-03-06T13:06:10;34.30;;;10.30;;
71127;SDS011;59249;59.736;30.568;2024-03-06T13:08:39;26.63;;;6.00;;
71127;SDS011;59249;59.736;30.568;2024-03-06T13:11:09;17.42;;;0.75;;
71127;SDS011;59249;59.736;30.568;2024-03-06T13:13:39;3.40;;;0.50;;
71127;SDS011;59249;59.736;30.568;2024-03-06T13:16:14;6.20;;;0.50;;
71127;SDS011;59249;59.736;30.568;2024-03-06T13:18:43;5.65;;;0.80;;
71127;SDS011;59249;59.736;30.568;2024-03-06T13:21:12;5.25;;;0.88;;
71127;SDS011;59249;59.736;30.568;2024-03-06T13:24:04;2.90;;;0.40;;
71127;SDS011;59249;59.736;30.568;2024-03-06T13:26:36;2.05;;;0.38;;
71127;SDS011;59249;59.736;30.568;2024-03-06T13:29:07;3.43;;;0.50;;
71127;SDS011;59249;59.736;30.568;2024-03-06T13:31:40;3.50;;;0.30;;
71127;SDS011;59249;59.736;30.568;2024-03-06T13:34:19;6.07;;;0.73;;
71127;SDS011;59249;59.736;30.568;2024-03-06T13:37:00;4.30;;;0.52;;
71127;SDS011;59249;59.736;30.568;2024-03-06T13:39:29;6.15;;;0.60;;
71127;SDS011;59249;59.736;30.568;2024-03-06T13:42:00;4.60;;;0.63;;
71127;SDS011;59249;59.736;30.568;2024-03-06T13:44:35;4.72;;;0.68;;
71127;SDS011;59249;59.736;30.568;2024-03-06T13:47:06;3.40;;;0.40;;
71127;SDS011;59249;59.736;30.568;2024-03-06T13:49:46;1.35;;;0.20;;
71127;SDS011;59249;59.736;30.568;2024-03-06T13:52:15;5.50;;;0.73;;
71127;SDS011;59249;59.736;30.568;2024-03-06T13:54:47;4.20;;;0.30;;
71127;SDS011;59249;59.736;30.568;2024-03-06T13:57:19;4.38;;;0.60;;
71127;SDS011;59249;59.736;30.568;2024-03-06T14:00:10;5.72;;;0.50;;
71127;SDS011;59249;59.736;30.568;2024-03-06T14:02:45;2.13;;;0.32;;
71127;SDS011;59249;59.736;30.568;2024-03-06T14:05:15;6.80;;;1.05;;
71127;SDS011;59249;59.736;30.568;2024-03-06T14:07:51;7.63;;;0.90;;
71127;SDS011;59249;59.736;30.568;2024-03-06T14:10:21;1.50;;;0.20;;
71127;SDS011;59249;59.736;30.568;2024-03-06T14:12:57;1.77;;;0.30;;
71127;SDS011;59249;59.736;30.568;2024-03-06T14:15:29;4.32;;;0.38;;
71127;SDS011;59249;59.736;30.568;2024-03-06T14:18:03;3.78;;;0.30;;
71127;SDS011;59249;59.736;30.568;2024-03-06T14:20:39;4.63;;;0.40;;
71127;SDS011;59249;59.736;30.568;2024-03-06T14:23:08;1.70;;;0.35;;
71127;SDS011;59249;59.736;30.568;2024-03-06T14:25:38;4.68;;;0.40;;
71127;SDS011;59249;59.736;30.568;2024-03-06T14:28:10;2.05;;;0.30;;
71127;SDS011;59249;59.736;30.568;2024-03-06T14:30:39;5.57;;;0.60;;
71127;SDS011;59249;59.736;30.568;2024-03-06T14:33:08;4.47;;;0.50;;
71127;SDS011;59249;59.736;30.568;2024-03-06T14:35:37;2.60;;;0.38;;
71127;SDS011;59249;59.736;30.568;2024-03-06T14:38:06;0.90;;;0.20;;
71127;SDS011;59249;59.736;30.568;2024-03-06T14:40:35;3.25;;;0.30;;
71127;SDS011;59249;59.736;30.568;2024-03-06T14:43:07;6.55;;;0.65;;
71127;SDS011;59249;59.736;30.568;2024-03-06T14:45:55;1.30;;;0.30;;
71127;SDS011;59249;59.736;30.568;2024-03-06T14:48:24;6.25;;;1.00;;
71127;SDS011;59249;59.736;30.568;2024-03-06T14:51:01;4.75;;;1.10;;
71127;SDS011;59249;59.736;30.568;2024-03-06T14:53:32;3.55;;;0.35;;
71127;SDS011;59249;59.736;30.568;2024-03-06T14:56:05;3.22;;;0.63;;
71127;SDS011;59249;59.736;30.568;2024-03-06T14:58:40;5.87;;;1.07;;
71127;SDS011;59249;59.736;30.568;2024-03-06T15:01:11;6.05;;;1.58;;
71127;SDS011;59249;59.736;30.568;2024-03-06T15:03:42;4.95;;;0.52;;
71127;SDS011;59249;59.736;30.568;2024-03-06T15:06:21;6.72;;;0.85;;
71127;SDS011;59249;59.736;30.568;2024-03-06T15:09:08;4.65;;;1.10;;
71127;SDS011;59249;59.736;30.568;2024-03-06T15:11:53;8.00;;;0.88;;
71127;SDS011;59249;59.736;30.568;2024-03-06T15:14:41;4.83;;;0.53;;
71127;SDS011;59249;59.736;30.568;2024-03-06T15:17:16;7.68;;;0.52;;
71127;SDS011;59249;59.736;30.568;2024-03-06T15:19:50;4.43;;;1.08;;
71127;SDS011;59249;59.736;30.568;2024-03-06T15:22:30;5.47;;;0.70;;
71127;SDS011;59249;59.736;30.568;2024-03-06T15:25:12;4.30;;;0.32;;
71127;SDS011;59249;59.736;30.568;2024-03-06T15:27:45;4.53;;;0.83;;
71127;SDS011;59249;59.736;30.568;2024-03-06T15:30:20;8.07;;;0.80;;
71127;SDS011;59249;59.736;30.568;2024-03-06T15:32:50;7.53;;;0.60;;